createdAt,value
2022-09-25T00:01:26.553Z,5.87
2022-09-25T00:03:56.403Z,5.27
2022-09-25T00:06:26.065Z,5.90
2022-09-25T00:08:55.197Z,5.77
2022-09-25T00:11:25.292Z,5.20
2022-09-25T00:13:53.926Z,6.00
2022-09-25T00:16:24.511Z,5.53
2022-09-25T00:19:21.618Z,6.03
2022-09-25T00:21:53.192Z,5.63
2022-09-25T00:24:22.480Z,6.00
2022-09-25T00:26:50.566Z,6.23
2022-09-25T00:29:20.803Z,5.83
2022-09-25T00:31:48.833Z,6.10
2022-09-25T00:34:18.429Z,6.10
2022-09-25T00:36:46.435Z,5.73
2022-09-25T00:39:15.908Z,6.53
2022-09-25T00:41:44.208Z,5.93
2022-09-25T00:44:53.365Z,6.47
2022-09-25T00:47:28.804Z,6.77
2022-09-25T00:49:59.430Z,6.43
2022-09-25T00:52:28.237Z,6.23
2022-09-25T00:55:02.340Z,6.83
2022-09-25T00:57:34.554Z,6.70
2022-09-25T01:00:08.333Z,6.43
2022-09-25T01:02:40.123Z,7.17
2022-09-25T01:05:12.025Z,6.53
2022-09-25T01:07:43.208Z,6.07
2022-09-25T01:10:14.046Z,6.17
2022-09-25T01:12:45.124Z,6.30
2022-09-25T01:15:15.015Z,6.07
2022-09-25T01:17:53.070Z,6.57
2022-09-25T01:20:38.369Z,6.20
2022-09-25T01:23:21.448Z,6.10
2022-09-25T01:26:06.990Z,6.63
2022-09-25T01:28:54.511Z,6.63
2022-09-25T01:31:33.242Z,6.27
2022-09-25T01:34:07.751Z,6.20
2022-09-25T01:36:39.176Z,6.33
2022-09-25T01:39:13.384Z,6.63
2022-09-25T01:41:50.886Z,6.30
2022-09-25T01:44:26.026Z,6.40
2022-09-25T01:46:57.068Z,6.23
2022-09-25T01:49:30.574Z,6.37
2022-09-25T01:52:01.120Z,6.17
2022-09-25T01:54:34.216Z,6.67
2022-09-25T01:57:09.583Z,6.27
2022-09-25T01:59:46.392Z,6.67
2022-09-25T02:02:19.394Z,7.00
2022-09-25T02:04:54.263Z,6.40
2022-09-25T02:07:29.686Z,6.60
2022-09-25T02:10:03.715Z,5.80
2022-09-25T02:12:36.236Z,5.97
2022-09-25T02:15:11.877Z,6.30
2022-09-25T02:18:03.799Z,7.07
2022-09-25T02:20:34.111Z,5.77
2022-09-25T02:23:14.845Z,6.60
2022-09-25T02:25:46.495Z,6.70
2022-09-25T02:28:14.473Z,6.77
2022-09-25T02:30:46.385Z,7.43
2022-09-25T02:33:14.455Z,6.17
2022-09-25T02:35:42.917Z,6.60
2022-09-25T02:38:11.018Z,6.37
2022-09-25T02:40:48.663Z,6.50
2022-09-25T02:43:27.617Z,6.73
2022-09-25T02:46:04.594Z,6.93
2022-09-25T02:48:44.441Z,7.17
2022-09-25T02:51:20.024Z,6.10
2022-09-25T02:53:54.769Z,7.50
2022-09-25T02:56:31.627Z,6.63
2022-09-25T02:59:07.745Z,6.93
2022-09-25T03:01:42.065Z,6.30
2022-09-25T03:04:11.787Z,6.27
2022-09-25T03:06:41.068Z,6.83
2022-09-25T03:09:12.086Z,6.37
2022-09-25T03:11:41.758Z,6.10
2022-09-25T03:14:10.045Z,6.40
2022-09-25T03:16:46.723Z,6.37
2022-09-25T03:19:16.084Z,6.63
2022-09-25T03:21:44.056Z,6.40
2022-09-25T03:24:12.239Z,6.67
2022-09-25T03:26:40.926Z,6.70
2022-09-25T03:29:09.240Z,7.13
2022-09-25T03:31:37.574Z,6.60
2022-09-25T03:34:07.069Z,6.40
2022-09-25T03:36:36.485Z,6.80
2022-09-25T03:39:06.819Z,7.27
2022-09-25T03:41:35.999Z,6.60
2022-09-25T03:44:04.973Z,6.70
2022-09-25T03:46:35.149Z,6.60
2022-09-25T03:49:04.832Z,6.70
2022-09-25T03:51:35.331Z,7.00
2022-09-25T03:54:04.319Z,6.37
2022-09-25T03:56:32.940Z,6.67
2022-09-25T03:59:01.417Z,7.27
2022-09-25T04:01:29.950Z,6.80
2022-09-25T04:03:58.264Z,7.30
2022-09-25T04:06:28.679Z,7.17
2022-09-25T04:08:58.072Z,7.43
2022-09-25T04:11:26.615Z,7.87
2022-09-25T04:13:55.387Z,7.60
2022-09-25T04:16:23.470Z,7.60
2022-09-25T04:18:51.523Z,7.50
2022-09-25T04:21:19.679Z,7.70
2022-09-25T04:24:07.765Z,7.50
2022-09-25T04:26:37.208Z,7.67
2022-09-25T04:29:06.736Z,7.47
2022-09-25T04:31:35.014Z,7.80
2022-09-25T04:34:02.613Z,7.50
2022-09-25T04:36:30.586Z,7.40
2022-09-25T04:38:58.551Z,7.83
2022-09-25T04:41:26.612Z,8.53
2022-09-25T04:43:55.973Z,8.17
2022-09-25T04:46:25.263Z,7.67
2022-09-25T04:48:53.286Z,7.73
2022-09-25T04:51:22.067Z,10.57
2022-09-25T04:53:50.065Z,7.80
2022-09-25T04:56:18.235Z,7.47
2022-09-25T04:58:47.705Z,7.00
2022-09-25T05:01:18.650Z,6.60
2022-09-25T05:03:50.249Z,7.00
2022-09-25T05:06:18.495Z,6.60
2022-09-25T05:08:49.440Z,7.40
2022-09-25T05:11:17.405Z,6.60
2022-09-25T05:13:46.796Z,6.60
2022-09-25T05:16:17.820Z,6.63
2022-09-25T05:18:46.263Z,7.40
2022-09-25T05:21:14.212Z,7.27
2022-09-25T05:23:42.372Z,6.80
2022-09-25T05:26:11.082Z,5.97
2022-09-25T05:28:39.322Z,6.10
2022-09-25T05:31:07.625Z,6.70
2022-09-25T05:33:37.408Z,5.27
2022-09-25T05:36:07.667Z,5.20
2022-09-25T05:38:37.011Z,5.77
2022-09-25T05:41:07.125Z,5.70
2022-09-25T05:43:40.243Z,5.70
2022-09-25T05:46:08.627Z,6.00
2022-09-25T05:48:38.424Z,5.93
2022-09-25T05:51:07.070Z,5.23
2022-09-25T05:53:35.339Z,5.57
2022-09-25T05:56:05.310Z,5.60
2022-09-25T05:58:35.239Z,5.33
2022-09-25T06:01:04.440Z,5.30
2022-09-25T06:03:32.906Z,4.93
2022-09-25T06:06:03.434Z,5.07
2022-09-25T06:08:32.340Z,5.27
2022-09-25T06:11:02.446Z,5.67
2022-09-25T06:13:35.128Z,5.03
2022-09-25T06:16:03.902Z,4.90
2022-09-25T06:18:32.496Z,4.97
2022-09-25T06:21:04.002Z,4.70
2022-09-25T06:23:32.399Z,4.97
2022-09-25T06:26:04.504Z,4.87
2022-09-25T06:28:33.037Z,5.13
2022-09-25T06:31:02.272Z,5.60
2022-09-25T06:33:31.052Z,5.07
2022-09-25T06:36:00.540Z,5.40
2022-09-25T06:38:32.450Z,4.60
2022-09-25T06:41:00.909Z,5.13
2022-09-25T06:43:30.155Z,5.50
2022-09-25T06:46:04.192Z,4.97
2022-09-25T06:48:32.946Z,5.27
2022-09-25T06:51:02.808Z,4.73
2022-09-25T06:53:32.315Z,4.80
2022-09-25T06:56:01.094Z,5.20
2022-09-25T06:58:30.625Z,4.93
2022-09-25T07:00:59.234Z,5.53
2022-09-25T07:03:45.282Z,5.17
2022-09-25T07:06:15.698Z,5.70
2022-09-25T07:08:46.395Z,6.47
2022-09-25T07:11:16.123Z,5.13
2022-09-25T07:13:44.310Z,4.93
2022-09-25T07:16:16.056Z,5.23
2022-09-25T07:18:44.974Z,4.87
2022-09-25T07:21:16.006Z,5.13
2022-09-25T07:23:45.710Z,5.80
2022-09-25T07:26:16.445Z,4.90
2022-09-25T07:28:45.716Z,4.60
2022-09-25T07:31:19.380Z,5.33
2022-09-25T07:33:48.535Z,5.67
2022-09-25T07:36:17.954Z,5.30
2022-09-25T07:38:50.695Z,5.10
2022-09-25T07:41:19.765Z,5.57
2022-09-25T07:43:47.961Z,5.30
2022-09-25T07:46:16.172Z,5.20
2022-09-25T07:48:44.327Z,5.13
2022-09-25T07:51:13.404Z,4.77
2022-09-25T07:53:42.777Z,4.90
2022-09-25T07:56:12.888Z,5.33
2022-09-25T07:58:41.507Z,5.43
2022-09-25T08:01:12.990Z,5.57
2022-09-25T08:03:41.216Z,6.30
2022-09-25T08:06:11.950Z,5.73
2022-09-25T08:08:40.847Z,5.33
2022-09-25T08:11:12.893Z,5.00
2022-09-25T08:13:42.056Z,5.20
2022-09-25T08:16:13.710Z,5.07
2022-09-25T08:18:42.638Z,5.03
2022-09-25T08:21:14.219Z,5.93
2022-09-25T08:23:47.688Z,4.97
2022-09-25T08:26:17.911Z,5.20
2022-09-25T08:28:46.289Z,5.47
2022-09-25T08:31:15.445Z,5.70
2022-09-25T08:33:46.110Z,4.97
2022-09-25T08:36:14.067Z,4.97
2022-09-25T08:38:42.016Z,5.00
2022-09-25T08:41:16.484Z,4.60
2022-09-25T08:43:53.835Z,4.80
2022-09-25T08:46:43.429Z,4.63
2022-09-25T08:49:14.303Z,5.43
2022-09-25T08:51:47.197Z,4.33
2022-09-25T08:54:23.745Z,4.20
2022-09-25T08:56:53.692Z,4.13
2022-09-25T08:59:29.379Z,4.22
2022-09-25T09:02:00.695Z,4.33
2022-09-25T09:04:32.510Z,4.68
2022-09-25T09:07:26.295Z,4.40
2022-09-25T09:10:02.084Z,4.22
2022-09-25T09:12:37.462Z,4.38
2022-09-25T09:15:31.935Z,3.45
2022-09-25T09:18:02.523Z,3.28
2022-09-25T09:20:38.468Z,3.83
2022-09-25T09:23:11.085Z,3.30
2022-09-25T09:25:52.238Z,3.60
2022-09-25T09:28:52.160Z,3.70
2022-09-25T09:31:27.999Z,4.07
2022-09-25T09:34:31.942Z,4.15
2022-09-25T09:37:17.105Z,3.72
2022-09-25T09:39:52.944Z,4.07
2022-09-25T09:42:27.493Z,4.03
2022-09-25T09:45:09.607Z,4.70
2022-09-25T09:47:46.759Z,3.53
2022-09-25T09:50:25.648Z,3.60
2022-09-25T09:52:59.611Z,3.13
2022-09-25T09:55:34.694Z,3.47
2022-09-25T09:58:08.729Z,3.50
2022-09-25T10:00:37.748Z,3.35
2022-09-25T10:03:19.962Z,3.40
2022-09-25T10:05:49.334Z,3.65
2022-09-25T10:08:18.406Z,3.10
2022-09-25T10:10:48.684Z,3.70
2022-09-25T10:13:20.354Z,3.85
2022-09-25T10:15:52.925Z,3.40
2022-09-25T10:18:27.201Z,3.60
2022-09-25T10:21:02.881Z,3.95
2022-09-25T10:23:39.829Z,3.05
2022-09-25T10:26:26.848Z,3.42
2022-09-25T10:28:57.840Z,3.70
2022-09-25T10:31:29.097Z,3.53
2022-09-25T10:34:04.184Z,3.67
2022-09-25T10:36:35.302Z,3.50
2022-09-25T10:39:39.136Z,3.40
2022-09-25T10:41:53.725Z,3.45
2022-09-25T10:44:24.922Z,3.40
2022-09-25T10:47:10.829Z,3.00
2022-09-25T10:50:06.690Z,3.20
2022-09-25T10:52:50.081Z,3.20
2022-09-25T10:55:28.401Z,3.15
2022-09-25T10:58:09.352Z,3.33
2022-09-25T11:00:44.127Z,3.03
2022-09-25T11:03:21.809Z,3.20
2022-09-25T11:05:58.161Z,3.00
2022-09-25T11:08:30.303Z,2.85
2022-09-25T11:11:00.020Z,2.97
2022-09-25T11:13:32.256Z,3.00
2022-09-25T11:16:02.573Z,2.92
2022-09-25T11:18:39.129Z,2.92
2022-09-25T11:21:21.054Z,3.28
2022-09-25T11:24:09.185Z,3.50
2022-09-25T11:26:41.788Z,3.38
2022-09-25T11:29:17.184Z,3.67
2022-09-25T11:31:51.688Z,3.78
2022-09-25T11:34:30.633Z,3.30
2022-09-25T11:37:08.165Z,3.28
2022-09-25T11:40:02.625Z,3.22
2022-09-25T11:42:38.228Z,3.22
2022-09-25T11:45:12.229Z,3.70
2022-09-25T11:47:47.175Z,3.65
2022-09-25T11:50:17.962Z,3.53
2022-09-25T11:52:59.854Z,3.80
2022-09-25T11:55:58.232Z,3.85
2022-09-25T11:58:43.458Z,4.13
2022-09-25T12:01:26.180Z,4.03
2022-09-25T12:04:07.492Z,3.75
2022-09-25T12:06:53.431Z,3.47
2022-09-25T12:09:38.904Z,3.92
2022-09-25T12:12:15.852Z,3.70
2022-09-25T12:14:54.605Z,3.70
2022-09-25T12:17:33.434Z,4.05
2022-09-25T12:20:08.630Z,3.38
2022-09-25T12:22:48.782Z,3.70
2022-09-25T12:25:34.190Z,3.30
2022-09-25T12:28:09.684Z,3.42
2022-09-25T12:30:46.405Z,3.50
2022-09-25T12:33:26.978Z,3.63
2022-09-25T12:36:01.133Z,3.33
2022-09-25T12:38:40.188Z,3.25
2022-09-25T12:41:18.250Z,3.28
2022-09-25T12:43:52.230Z,3.72
2022-09-25T12:46:27.624Z,3.25
2022-09-25T12:49:02.181Z,3.40
2022-09-25T12:51:35.834Z,4.18
2022-09-25T12:54:08.382Z,3.80
2022-09-25T12:56:44.421Z,3.90
2022-09-25T12:59:17.546Z,3.45
2022-09-25T13:01:54.493Z,3.30
2022-09-25T13:04:48.273Z,3.45
2022-09-25T13:07:23.548Z,3.20
2022-09-25T13:09:51.668Z,3.58
2022-09-25T13:12:34.962Z,3.38
2022-09-25T13:15:09.753Z,3.15
2022-09-25T13:17:38.660Z,3.50
2022-09-25T13:20:49.531Z,3.50
2022-09-25T13:23:32.346Z,3.50
2022-09-25T13:26:03.180Z,3.78
2022-09-25T13:28:35.575Z,3.50
2022-09-25T13:31:09.578Z,3.53
2022-09-25T13:33:48.890Z,3.70
2022-09-25T13:36:33.173Z,2.97
2022-09-25T13:39:22.153Z,3.15
2022-09-25T13:41:55.566Z,3.25
2022-09-25T13:45:00.245Z,3.53
2022-09-25T13:47:50.363Z,3.70
2022-09-25T13:50:23.722Z,3.60
2022-09-25T13:53:23.161Z,3.63
2022-09-25T13:56:27.621Z,3.95
2022-09-25T13:59:24.675Z,3.20
2022-09-25T14:02:00.305Z,3.58
2022-09-25T14:04:36.031Z,4.18
2022-09-25T14:07:17.771Z,3.72
2022-09-25T14:09:48.771Z,4.22
2022-09-25T14:12:25.271Z,3.70
2022-09-25T14:14:59.614Z,4.00
2022-09-25T14:17:32.647Z,3.90
2022-09-25T14:20:03.804Z,3.80
2022-09-25T14:22:46.700Z,3.47
2022-09-25T14:25:27.710Z,3.70
2022-09-25T14:27:56.316Z,3.80
2022-09-25T14:30:29.161Z,3.63
2022-09-25T14:33:20.123Z,3.40
2022-09-25T14:35:57.699Z,3.75
2022-09-25T14:39:12.962Z,4.00
2022-09-25T14:42:01.843Z,3.20
2022-09-25T14:45:06.153Z,4.05
2022-09-25T14:47:37.679Z,3.72
2022-09-25T14:50:08.104Z,4.07
2022-09-25T14:52:37.854Z,4.50
2022-09-25T14:55:06.831Z,3.90
2022-09-25T14:57:37.312Z,3.35
2022-09-25T15:00:09.097Z,3.92
2022-09-25T15:02:41.764Z,3.60
2022-09-25T15:05:30.836Z,4.13
2022-09-25T15:08:02.310Z,3.72
2022-09-25T15:10:33.535Z,3.97
2022-09-25T15:13:10.024Z,4.13
2022-09-25T15:15:39.915Z,4.40
2022-09-25T15:18:12.939Z,3.90
2022-09-25T15:20:48.059Z,3.88
2022-09-25T15:23:19.812Z,4.13
2022-09-25T15:25:51.919Z,4.10
2022-09-25T15:28:22.428Z,4.45
2022-09-25T15:30:58.114Z,4.47
2022-09-25T15:33:29.328Z,4.25
2022-09-25T15:36:00.117Z,4.70
2022-09-25T15:38:33.328Z,4.22
2022-09-25T15:41:03.232Z,4.50
2022-09-25T15:43:31.577Z,4.57
2022-09-25T15:46:20.596Z,4.45
2022-09-25T15:48:56.061Z,3.95
2022-09-25T15:51:29.683Z,4.40
2022-09-25T15:54:00.178Z,5.32
2022-09-25T15:56:30.145Z,5.00
2022-09-25T15:59:02.342Z,4.43
2022-09-25T16:01:49.405Z,5.18
2022-09-25T16:04:39.038Z,5.32
2022-09-25T16:07:25.608Z,6.22
2022-09-25T16:09:55.267Z,5.40
2022-09-25T16:12:29.240Z,5.47
2022-09-25T16:14:59.297Z,6.47
2022-09-25T16:17:33.679Z,6.05
2022-09-25T16:20:07.597Z,6.47
2022-09-25T16:22:48.836Z,7.05
2022-09-25T16:25:25.740Z,7.15
2022-09-25T16:27:56.301Z,8.02
2022-09-25T16:30:25.132Z,7.85
2022-09-25T16:32:55.306Z,8.05
2022-09-25T16:35:27.570Z,7.75
2022-09-25T16:37:59.599Z,7.43
2022-09-25T16:40:33.795Z,6.47
2022-09-25T16:43:02.698Z,7.47
2022-09-25T16:45:34.398Z,5.93
2022-09-25T16:48:24.096Z,5.05
2022-09-25T16:50:54.779Z,5.15
2022-09-25T16:53:23.602Z,5.90
2022-09-25T16:55:53.446Z,5.25
2022-09-25T16:58:22.329Z,5.93
2022-09-25T17:00:51.085Z,6.35
2022-09-25T17:03:19.411Z,5.70
2022-09-25T17:05:47.429Z,5.18
2022-09-25T17:08:19.861Z,5.60
2022-09-25T17:10:52.202Z,5.50
2022-09-25T17:13:27.681Z,5.55
2022-09-25T17:15:57.595Z,5.43
2022-09-25T17:18:25.978Z,5.70
2022-09-25T17:20:56.546Z,6.15
2022-09-25T17:23:27.410Z,6.25
2022-09-25T17:26:00.904Z,7.47
2022-09-25T17:28:29.511Z,7.88
2022-09-25T17:30:58.115Z,8.30
2022-09-25T17:33:27.428Z,8.50
2022-09-25T17:35:59.800Z,8.25
2022-09-25T17:38:29.314Z,7.22
2022-09-25T17:41:03.164Z,6.70
2022-09-25T17:43:34.718Z,7.28
2022-09-25T17:46:03.051Z,7.07
2022-09-25T17:48:32.678Z,7.00
2022-09-25T17:51:02.330Z,5.68
2022-09-25T17:53:35.438Z,6.57
2022-09-25T17:56:03.997Z,7.32
2022-09-25T17:58:33.634Z,7.03
2022-09-25T18:01:04.152Z,5.60
2022-09-25T18:03:32.621Z,6.63
2022-09-25T18:06:00.724Z,6.32
2022-09-25T18:08:29.185Z,5.32
2022-09-25T18:11:00.018Z,6.00
2022-09-25T18:13:28.065Z,6.28
2022-09-25T18:15:58.318Z,5.50
2022-09-25T18:18:47.282Z,5.47
2022-09-25T18:21:33.056Z,5.47
2022-09-25T18:24:01.097Z,5.45
2022-09-25T18:26:31.566Z,5.53
2022-09-25T18:28:59.892Z,5.60
2022-09-25T18:31:28.289Z,5.30
2022-09-25T18:33:56.651Z,5.30
2022-09-25T18:36:25.335Z,4.53
2022-09-25T18:38:53.518Z,4.80
2022-09-25T18:41:21.841Z,4.37
2022-09-25T18:43:51.192Z,4.00
2022-09-25T18:46:19.528Z,3.77
2022-09-25T18:48:48.408Z,4.63
2022-09-25T18:51:17.049Z,5.00
2022-09-25T18:53:45.086Z,4.40
2022-09-25T18:56:13.143Z,4.80
2022-09-25T18:58:41.174Z,5.10
2022-09-25T19:01:10.986Z,5.37
2022-09-25T19:03:40.996Z,4.80
2022-09-25T19:06:09.245Z,5.30
2022-09-25T19:08:37.462Z,5.20
2022-09-25T19:11:13.941Z,5.60
2022-09-25T19:13:42.885Z,5.70
2022-09-25T19:16:12.515Z,5.47
2022-09-25T19:18:40.672Z,6.17
2022-09-25T19:21:08.659Z,6.03
2022-09-25T19:23:36.819Z,6.03
2022-09-25T19:26:06.195Z,6.40
2022-09-25T19:28:36.065Z,6.45
2022-09-25T19:31:06.861Z,6.63
2022-09-25T19:33:38.513Z,6.30
2022-09-25T19:36:09.102Z,6.80
2022-09-25T19:38:40.191Z,7.00
2022-09-25T19:41:14.442Z,6.43
2022-09-25T19:43:43.029Z,6.93
2022-09-25T19:46:14.704Z,5.97
2022-09-25T19:48:44.797Z,6.50
2022-09-25T19:51:12.884Z,6.53
2022-09-25T19:53:42.362Z,6.00
2022-09-25T19:56:11.607Z,6.63
2022-09-25T19:58:40.141Z,6.97
2022-09-25T20:01:12.718Z,6.97
2022-09-25T20:03:41.850Z,6.50
2022-09-25T20:06:12.029Z,6.77
2022-09-25T20:08:40.197Z,6.63
2022-09-25T20:11:13.704Z,6.27
2022-09-25T20:13:41.647Z,6.97
2022-09-25T20:16:11.699Z,6.33
2022-09-25T20:18:40.013Z,6.67
2022-09-25T20:21:09.340Z,6.03
2022-09-25T20:23:38.721Z,6.30
2022-09-25T20:26:11.418Z,6.93
2022-09-25T20:28:41.662Z,6.80
2022-09-25T20:31:12.658Z,6.77
2022-09-25T20:33:41.861Z,7.23
2022-09-25T20:36:13.269Z,6.60
2022-09-25T20:38:43.230Z,7.00
2022-09-25T20:41:13.081Z,6.23
2022-09-25T20:43:44.216Z,6.70
2022-09-25T20:46:14.841Z,6.50
2022-09-25T20:48:45.951Z,7.13
2022-09-25T20:51:18.982Z,7.50
2022-09-25T20:53:53.059Z,7.23
2022-09-25T20:56:22.047Z,7.27
2022-09-25T20:58:53.319Z,6.70
2022-09-25T21:01:23.735Z,7.43
2022-09-25T21:03:52.804Z,6.87
2022-09-25T21:06:22.911Z,6.97
2022-09-25T21:08:55.874Z,7.40
2022-09-25T21:11:25.629Z,6.87
2022-09-25T21:13:58.090Z,6.80
2022-09-25T21:16:27.795Z,6.50
2022-09-25T21:18:58.313Z,7.30
2022-09-25T21:21:27.439Z,7.17
2022-09-25T21:23:58.578Z,6.50
2022-09-25T21:26:28.859Z,6.60
2022-09-25T21:28:58.831Z,6.23
2022-09-25T21:31:28.337Z,6.57
2022-09-25T21:33:57.817Z,7.23
2022-09-25T21:36:27.020Z,6.73
2022-09-25T21:38:57.038Z,6.20
2022-09-25T21:41:26.546Z,6.60
2022-09-25T21:43:55.707Z,6.17
2022-09-25T21:46:24.481Z,7.23
2022-09-25T21:48:54.705Z,6.80
2022-09-25T21:51:25.187Z,5.67
2022-09-25T21:53:54.373Z,6.07
2022-09-25T21:56:26.422Z,6.83
2022-09-25T21:58:55.979Z,6.23
2022-09-25T22:01:30.012Z,6.10
2022-09-25T22:03:59.564Z,6.83
2022-09-25T22:06:29.818Z,6.77
2022-09-25T22:09:00.111Z,6.47
2022-09-25T22:11:30.416Z,6.90
2022-09-25T22:14:00.233Z,6.50
2022-09-25T22:16:30.511Z,6.30
2022-09-25T22:19:00.493Z,6.27
2022-09-25T22:21:30.356Z,6.60
2022-09-25T22:23:58.990Z,7.37
2022-09-25T22:26:27.659Z,6.47
2022-09-25T22:28:57.713Z,6.93
2022-09-25T22:31:27.570Z,6.50
2022-09-25T22:33:58.438Z,7.20
2022-09-25T22:36:27.150Z,7.30
2022-09-25T22:38:55.776Z,7.07
2022-09-25T22:41:24.266Z,6.20
2022-09-25T22:43:53.996Z,7.10
2022-09-25T22:46:25.239Z,6.93
2022-09-25T22:48:53.367Z,6.83
2022-09-25T22:51:22.809Z,6.90
2022-09-25T22:53:51.820Z,6.97
2022-09-25T22:56:21.906Z,7.53
2022-09-25T22:58:51.999Z,7.43
2022-09-25T23:01:24.609Z,7.67
2022-09-25T23:03:56.498Z,7.23
2022-09-25T23:06:24.911Z,7.23
2022-09-25T23:08:54.525Z,7.30
2022-09-25T23:11:24.043Z,6.93
2022-09-25T23:13:57.139Z,7.00
2022-09-25T23:16:27.207Z,7.07
2022-09-25T23:18:57.467Z,7.27
2022-09-25T23:21:25.515Z,6.73
2022-09-25T23:23:57.195Z,7.40
2022-09-25T23:26:25.516Z,7.60
2022-09-25T23:28:53.536Z,7.80
2022-09-25T23:31:22.622Z,7.37
2022-09-25T23:33:52.034Z,6.70
2022-09-25T23:36:22.238Z,6.77
2022-09-25T23:38:51.434Z,7.20
2022-09-25T23:41:22.752Z,7.57
2022-09-25T23:43:52.409Z,7.83
2022-09-25T23:46:22.655Z,6.80
2022-09-25T23:48:52.544Z,8.00
2022-09-25T23:51:22.287Z,7.07
2022-09-25T23:53:51.246Z,6.73
2022-09-25T23:56:21.399Z,7.23
2022-09-25T23:58:50.281Z,7.83
